createdAt,value
2023-04-22T00:03:09.546Z,22.30
2023-04-22T00:08:15.260Z,21.40
2023-04-22T00:13:19.409Z,24.88
2023-04-22T00:18:23.528Z,23.20
2023-04-22T00:23:29.195Z,22.13
2023-04-22T00:28:33.252Z,21.50
2023-04-22T00:33:37.292Z,22.63
2023-04-22T00:38:47.819Z,21.67
2023-04-22T00:43:53.606Z,22.10
2023-04-22T00:48:58.618Z,21.48
2023-04-22T00:54:04.862Z,21.95
2023-04-22T00:59:10.920Z,21.40
2023-04-22T01:09:25.822Z,21.85
2023-04-22T01:14:30.697Z,21.92
2023-04-22T01:19:34.913Z,21.40
2023-04-22T01:24:40.892Z,23.33
2023-04-22T01:34:49.252Z,21.73
2023-04-22T01:39:55.523Z,20.38
2023-04-22T01:44:59.812Z,19.58
2023-04-22T01:50:04.120Z,20.05
2023-04-22T01:55:10.868Z,18.13
2023-04-22T02:00:15.431Z,17.38
2023-04-22T02:05:25.005Z,17.75
2023-04-22T02:10:30.693Z,19.02
2023-04-22T02:15:34.982Z,18.95
2023-04-22T02:20:39.126Z,19.17
2023-04-22T02:25:50.288Z,17.65
2023-04-22T02:30:56.016Z,16.92
2023-04-22T02:36:00.280Z,17.70
2023-04-22T02:41:06.322Z,18.27
2023-04-22T02:46:56.554Z,17.90
2023-04-22T02:52:00.564Z,17.23
2023-04-22T02:57:04.792Z,17.55
2023-04-22T03:02:11.578Z,15.13
2023-04-22T03:07:33.320Z,16.48
2023-04-22T03:12:37.661Z,17.63
2023-04-22T03:17:43.311Z,18.73
2023-04-22T03:22:50.280Z,17.52
2023-04-22T03:27:54.495Z,18.02
2023-04-22T03:33:00.252Z,18.50
2023-04-22T03:38:24.898Z,18.58
2023-04-22T03:43:29.127Z,18.75
2023-04-22T03:48:42.957Z,18.77
2023-04-22T03:54:00.059Z,19.50
2023-04-22T03:59:07.352Z,19.40
2023-04-22T04:04:13.460Z,26.65
2023-04-22T04:09:31.909Z,22.70
2023-04-22T04:14:35.901Z,16.35
2023-04-22T04:24:47.795Z,14.90
2023-04-22T04:29:57.477Z,16.80
2023-04-22T04:35:18.507Z,33.25
2023-04-22T04:40:30.900Z,22.25
2023-04-22T04:45:49.074Z,21.60
2023-04-22T04:50:59.463Z,40.10
2023-04-22T04:56:08.874Z,35.67
2023-04-22T05:01:13.284Z,28.58
2023-04-22T05:06:21.278Z,33.30
2023-04-22T05:11:36.889Z,20.83
2023-04-22T05:16:48.413Z,17.90
2023-04-22T05:21:54.402Z,16.38
2023-04-22T05:26:58.838Z,19.38
2023-04-22T05:32:03.601Z,16.10
2023-04-22T05:37:11.002Z,19.30
2023-04-22T05:42:20.340Z,13.48
2023-04-22T05:47:24.285Z,14.15
2023-04-22T05:52:30.561Z,14.75
2023-04-22T05:57:50.781Z,15.80
2023-04-22T06:03:15.699Z,14.82
2023-04-22T06:08:21.297Z,15.00
2023-04-22T06:13:27.935Z,13.90
2023-04-22T06:18:32.458Z,13.73
2023-04-22T06:23:38.779Z,14.43
2023-04-22T06:28:42.807Z,16.05
2023-04-22T06:33:53.510Z,16.10
2023-04-22T06:38:59.092Z,16.40
2023-04-22T06:44:16.343Z,15.70
2023-04-22T06:49:20.537Z,16.67
2023-04-22T06:54:56.830Z,15.68
2023-04-22T07:00:01.608Z,18.88
2023-04-22T07:05:06.585Z,14.38
2023-04-22T07:10:14.770Z,15.02
2023-04-22T07:15:28.403Z,17.35
2023-04-22T07:20:32.528Z,15.82
2023-04-22T07:25:37.935Z,15.30
2023-04-22T07:30:41.975Z,15.15
2023-04-22T07:35:46.255Z,15.18
2023-04-22T07:40:51.866Z,15.00
2023-04-22T07:50:59.643Z,15.43
2023-04-22T08:01:06.615Z,13.30
2023-04-22T08:06:10.740Z,13.73
2023-04-22T08:11:14.758Z,14.43
2023-04-22T08:16:20.190Z,10.25
2023-04-22T08:26:27.948Z,6.88
2023-04-22T08:31:33.423Z,6.00
2023-04-22T08:41:45.057Z,6.72
2023-04-22T08:46:51.033Z,8.73
2023-04-22T08:51:56.189Z,8.95
2023-04-22T08:57:02.559Z,4.57
2023-04-22T09:02:08.831Z,4.15
2023-04-22T09:07:15.404Z,4.90
2023-04-22T09:12:19.510Z,5.18
2023-04-22T09:17:33.854Z,6.60
2023-04-22T09:22:43.391Z,4.57
2023-04-22T09:27:51.693Z,4.15
2023-04-22T09:32:58.404Z,4.65
2023-04-22T09:38:03.556Z,4.90
2023-04-22T09:43:09.527Z,33.47
2023-04-22T09:48:16.606Z,5.60
2023-04-22T09:53:22.050Z,4.57
2023-04-22T10:08:37.681Z,5.10
2023-04-22T10:13:41.686Z,4.85
2023-04-22T10:18:48.666Z,4.50
2023-04-22T10:23:52.830Z,3.65
2023-04-22T10:28:58.892Z,3.70
2023-04-22T10:34:14.745Z,3.85
2023-04-22T10:44:23.627Z,3.92
2023-04-22T10:49:32.292Z,3.55
2023-04-22T10:55:03.310Z,4.35
2023-04-22T11:00:52.262Z,3.60
2023-04-22T11:06:18.500Z,3.92
2023-04-22T11:11:22.507Z,4.25
2023-04-22T11:16:26.607Z,3.30
2023-04-22T11:21:33.048Z,3.45
2023-04-22T11:26:37.777Z,3.60
2023-04-22T11:31:48.045Z,3.33
2023-04-22T11:36:53.347Z,3.55
2023-04-22T11:41:57.240Z,4.10
2023-04-22T11:47:02.480Z,4.00
2023-04-22T11:52:07.847Z,3.92
2023-04-22T12:02:19.815Z,4.03
2023-04-22T12:07:27.806Z,3.45
2023-04-22T12:12:33.075Z,3.53
2023-04-22T12:17:37.039Z,4.25
2023-04-22T12:22:42.556Z,3.13
2023-04-22T12:27:46.573Z,2.80
2023-04-22T12:32:50.609Z,3.93
2023-04-22T12:37:55.914Z,4.57
2023-04-22T12:42:59.846Z,4.15
2023-04-22T12:48:03.831Z,3.90
2023-04-22T12:53:09.581Z,4.37
2023-04-22T12:58:13.600Z,3.58
2023-04-22T13:03:17.716Z,3.85
2023-04-22T13:08:23.212Z,5.18
2023-04-22T13:18:30.963Z,4.45
2023-04-22T13:23:36.580Z,5.60
2023-04-22T13:28:40.580Z,4.00
2023-04-22T13:33:46.642Z,5.75
2023-04-22T13:38:52.066Z,5.38
2023-04-22T13:43:56.497Z,4.18
2023-04-22T13:49:00.468Z,3.72
2023-04-22T13:54:06.280Z,4.05
2023-04-22T13:59:10.193Z,4.22
2023-04-22T14:04:14.509Z,5.45
2023-04-22T14:09:19.914Z,4.40
2023-04-22T14:14:23.894Z,4.05
2023-04-22T14:19:29.072Z,3.92
2023-04-22T14:24:34.411Z,4.40
2023-04-22T14:29:38.569Z,4.55
2023-04-22T14:34:42.671Z,4.10
2023-04-22T14:39:48.066Z,4.93
2023-04-22T14:44:52.100Z,4.53
2023-04-22T14:49:56.034Z,6.20
2023-04-22T14:55:11.813Z,4.95
2023-04-22T15:00:20.150Z,4.50
2023-04-22T15:05:24.422Z,4.07
2023-04-22T15:10:29.800Z,3.80
2023-04-22T15:15:34.060Z,4.40
2023-04-22T15:20:38.158Z,4.30
2023-04-22T15:25:43.952Z,4.05
2023-04-22T15:30:48.757Z,4.53
2023-04-22T15:35:52.699Z,4.60
2023-04-22T15:40:58.420Z,4.20
2023-04-22T15:46:02.489Z,5.75
2023-04-22T15:51:06.483Z,4.80
2023-04-22T15:56:12.073Z,4.00
2023-04-22T16:01:19.194Z,3.83
2023-04-22T16:06:24.059Z,6.18
2023-04-22T16:11:30.418Z,5.50
2023-04-22T16:16:34.501Z,6.15
2023-04-22T16:21:38.645Z,4.72
2023-04-22T16:26:44.224Z,4.23
2023-04-22T16:31:48.341Z,4.57
2023-04-22T16:36:52.592Z,5.95
2023-04-22T16:41:58.265Z,4.88
2023-04-22T16:47:02.412Z,5.63
2023-04-22T16:52:06.582Z,4.60
2023-04-22T16:57:12.605Z,4.78
2023-04-22T17:02:16.758Z,5.65
2023-04-22T17:07:24.163Z,5.95
2023-04-22T17:12:29.887Z,5.90
2023-04-22T17:22:38.235Z,6.15
2023-04-22T17:27:43.756Z,6.07
2023-04-22T17:32:47.906Z,7.57
2023-04-22T17:37:53.670Z,7.20
2023-04-22T17:48:02.831Z,9.02
2023-04-22T17:53:07.110Z,8.52
2023-04-22T17:58:12.508Z,8.90
2023-04-22T18:03:16.970Z,8.18
2023-04-22T18:08:21.128Z,8.45
2023-04-22T18:13:26.465Z,9.02
2023-04-22T18:18:30.421Z,9.02
2023-04-22T18:23:35.206Z,10.10
2023-04-22T18:28:41.230Z,10.82
2023-04-22T18:33:45.393Z,10.63
2023-04-22T18:38:49.432Z,11.35
2023-04-22T18:43:55.047Z,17.08
2023-04-22T18:48:59.102Z,16.50
2023-04-22T18:54:03.508Z,21.38
2023-04-22T18:59:08.957Z,23.42
2023-04-22T19:04:13.009Z,23.77
2023-04-22T19:09:17.221Z,28.17
2023-04-22T19:14:22.689Z,49.50
2023-04-22T19:19:27.034Z,42.08
2023-04-22T19:24:33.520Z,39.58
2023-04-22T19:29:39.401Z,34.42
2023-04-22T19:34:44.863Z,33.33
2023-04-22T19:39:48.816Z,30.10
2023-04-22T19:44:54.847Z,30.85
2023-04-22T19:49:59.543Z,28.92
2023-04-22T19:55:09.007Z,27.92
2023-04-22T20:00:15.398Z,27.80
2023-04-22T20:05:21.078Z,31.35
2023-04-22T20:10:26.500Z,31.40
2023-04-22T20:15:33.121Z,30.05
2023-04-22T20:20:37.774Z,29.02
2023-04-22T20:25:45.743Z,29.48
2023-04-22T20:30:51.444Z,20.83
2023-04-22T20:35:55.662Z,23.13
2023-04-22T20:41:02.013Z,22.95
2023-04-22T20:46:07.572Z,24.50
2023-04-22T20:51:12.488Z,23.92
2023-04-22T20:56:16.444Z,22.63
2023-04-22T21:01:21.993Z,20.17
2023-04-22T21:06:28.522Z,21.52
2023-04-22T21:11:33.019Z,20.42
2023-04-22T21:16:41.354Z,24.52
2023-04-22T21:21:48.011Z,25.45
2023-04-22T21:26:52.496Z,25.23
2023-04-22T21:32:08.136Z,22.75
2023-04-22T21:37:13.162Z,20.95
2023-04-22T21:42:17.298Z,21.98
2023-04-22T21:47:22.837Z,21.50
2023-04-22T21:52:27.352Z,20.75
2023-04-22T21:57:31.723Z,20.52
2023-04-22T22:02:37.332Z,19.48
2023-04-22T22:07:41.822Z,18.17
2023-04-22T22:12:46.770Z,16.50
2023-04-22T22:17:52.206Z,15.20
2023-04-22T22:22:58.729Z,13.80
2023-04-22T22:28:02.957Z,14.75
2023-04-22T22:33:08.400Z,15.00
2023-04-22T22:38:12.461Z,14.07
2023-04-22T22:43:16.411Z,17.10
2023-04-22T22:48:21.780Z,17.48
2023-04-22T22:53:25.944Z,18.73
2023-04-22T22:58:30.044Z,18.85
2023-04-22T23:03:37.249Z,18.88
2023-04-22T23:08:41.405Z,19.17
2023-04-22T23:13:45.597Z,19.90
2023-04-22T23:18:53.249Z,20.50
2023-04-22T23:23:58.344Z,19.42
2023-04-22T23:29:02.845Z,17.60
2023-04-22T23:34:08.977Z,16.25
2023-04-22T23:39:13.191Z,16.15
2023-04-22T23:44:17.125Z,18.10
2023-04-22T23:49:22.801Z,17.48
2023-04-22T23:54:27.305Z,17.50
2023-04-22T23:59:32.028Z,17.48
